sensor_id;sensor_type;location;lat;lon;timestamp;P1;durP1;ratioP1;P2;durP2;ratioP2
19341;SDS011;9807;48.258;12.690;2022-09-29T00:01:53;0.70;;;0.70;;
19341;SDS011;9807;48.258;12.690;2022-09-29T00:04:19;1.63;;;0.80;;
19341;SDS011;9807;48.258;12.690;2022-09-29T00:06:44;0.70;;;0.70;;
19341;SDS011;9807;48.258;12.690;2022-09-29T00:09:10;0.80;;;0.80;;
19341;SDS011;9807;48.258;12.690;2022-09-29T00:11:36;1.33;;;0.90;;
19341;SDS011;9807;48.258;12.690;2022-09-29T00:14:01;1.23;;;0.90;;
19341;SDS011;9807;48.258;12.690;2022-09-29T00:16:27;0.60;;;0.60;;
19341;SDS011;9807;48.258;12.690;2022-09-29T00:18:56;0.70;;;0.70;;
19341;SDS011;9807;48.258;12.690;2022-09-29T00:21:25;1.97;;;0.80;;
19341;SDS011;9807;48.258;12.690;2022-09-29T00:23:54;1.27;;;0.90;;
19341;SDS011;9807;48.258;12.690;2022-09-29T00:26:21;1.43;;;0.80;;
19341;SDS011;9807;48.258;12.690;2022-09-29T00:28:48;0.97;;;0.87;;
19341;SDS011;9807;48.258;12.690;2022-09-29T00:31:18;2.43;;;0.90;;
19341;SDS011;9807;48.258;12.690;2022-09-29T00:33:44;2.40;;;1.10;;
19341;SDS011;9807;48.258;12.690;2022-09-29T00:36:11;2.07;;;1.30;;
19341;SDS011;9807;48.258;12.690;2022-09-29T00:38:39;1.80;;;0.87;;
19341;SDS011;9807;48.258;12.690;2022-09-29T00:41:06;1.10;;;0.97;;
19341;SDS011;9807;48.258;12.690;2022-09-29T00:46:21;1.67;;;0.70;;
19341;SDS011;9807;48.258;12.690;2022-09-29T00:49:19;4.23;;;0.90;;
19341;SDS011;9807;48.258;12.690;2022-09-29T00:51:54;0.67;;;0.67;;
19341;SDS011;9807;48.258;12.690;2022-09-29T00:54:24;1.13;;;0.87;;
19341;SDS011;9807;48.258;12.690;2022-09-29T00:56:52;1.37;;;0.80;;
19341;SDS011;9807;48.258;12.690;2022-09-29T00:59:24;0.80;;;0.60;;
19341;SDS011;9807;48.258;12.690;2022-09-29T01:01:56;1.43;;;0.80;;
19341;SDS011;9807;48.258;12.690;2022-09-29T01:04:22;0.70;;;0.70;;
19341;SDS011;9807;48.258;12.690;2022-09-29T01:06:52;1.13;;;0.80;;
19341;SDS011;9807;48.258;12.690;2022-09-29T01:09:42;0.80;;;0.70;;
19341;SDS011;9807;48.258;12.690;2022-09-29T01:12:07;2.77;;;1.07;;
19341;SDS011;9807;48.258;12.690;2022-09-29T01:14:33;1.33;;;1.20;;
19341;SDS011;9807;48.258;12.690;2022-09-29T01:17:04;0.87;;;0.70;;
19341;SDS011;9807;48.258;12.690;2022-09-29T01:22:40;0.97;;;0.73;;
19341;SDS011;9807;48.258;12.690;2022-09-29T01:39:33;0.90;;;0.70;;
19341;SDS011;9807;48.258;12.690;2022-09-29T01:42:15;1.40;;;1.10;;
19341;SDS011;9807;48.258;12.690;2022-09-29T01:44:53;1.47;;;0.80;;
19341;SDS011;9807;48.258;12.690;2022-09-29T01:47:30;0.70;;;0.70;;
19341;SDS011;9807;48.258;12.690;2022-09-29T01:50:03;0.70;;;0.67;;
19341;SDS011;9807;48.258;12.690;2022-09-29T01:52:48;0.70;;;0.70;;
19341;SDS011;9807;48.258;12.690;2022-09-29T01:55:20;0.60;;;0.60;;
19341;SDS011;9807;48.258;12.690;2022-09-29T01:57:52;0.70;;;0.70;;
19341;SDS011;9807;48.258;12.690;2022-09-29T02:00:22;0.80;;;0.80;;
19341;SDS011;9807;48.258;12.690;2022-09-29T02:02:54;0.63;;;0.63;;
19341;SDS011;9807;48.258;12.690;2022-09-29T02:05:32;0.80;;;0.77;;
19341;SDS011;9807;48.258;12.690;2022-09-29T02:08:00;0.77;;;0.77;;
19341;SDS011;9807;48.258;12.690;2022-09-29T02:10:36;0.90;;;0.80;;
19341;SDS011;9807;48.258;12.690;2022-09-29T02:13:08;0.70;;;0.70;;
19341;SDS011;9807;48.258;12.690;2022-09-29T02:15:36;1.00;;;0.80;;
19341;SDS011;9807;48.258;12.690;2022-09-29T02:21:11;1.37;;;1.00;;
19341;SDS011;9807;48.258;12.690;2022-09-29T02:23:37;0.80;;;0.80;;
19341;SDS011;9807;48.258;12.690;2022-09-29T02:26:03;1.53;;;1.10;;
19341;SDS011;9807;48.258;12.690;2022-09-29T02:28:32;2.77;;;0.60;;
19341;SDS011;9807;48.258;12.690;2022-09-29T02:30:58;0.80;;;0.80;;
19341;SDS011;9807;48.258;12.690;2022-09-29T02:33:25;0.80;;;0.80;;
19341;SDS011;9807;48.258;12.690;2022-09-29T02:44:15;0.80;;;0.80;;
19341;SDS011;9807;48.258;12.690;2022-09-29T02:46:45;7.23;;;1.10;;
19341;SDS011;9807;48.258;12.690;2022-09-29T02:52:24;1.20;;;0.80;;
19341;SDS011;9807;48.258;12.690;2022-09-29T02:55:21;0.90;;;0.90;;
19341;SDS011;9807;48.258;12.690;2022-09-29T02:58:02;0.80;;;0.80;;
19341;SDS011;9807;48.258;12.690;2022-09-29T03:00:39;14.43;;;1.70;;
19341;SDS011;9807;48.258;12.690;2022-09-29T03:03:05;1.87;;;1.50;;
19341;SDS011;9807;48.258;12.690;2022-09-29T03:05:31;1.60;;;0.90;;
19341;SDS011;9807;48.258;12.690;2022-09-29T03:07:57;0.97;;;0.80;;
19341;SDS011;9807;48.258;12.690;2022-09-29T03:10:23;0.77;;;0.77;;
19341;SDS011;9807;48.258;12.690;2022-09-29T03:12:52;1.33;;;0.67;;
19341;SDS011;9807;48.258;12.690;2022-09-29T03:15:17;0.70;;;0.70;;
19341;SDS011;9807;48.258;12.690;2022-09-29T03:17:43;0.80;;;0.80;;
19341;SDS011;9807;48.258;12.690;2022-09-29T03:20:09;0.80;;;0.80;;
19341;SDS011;9807;48.258;12.690;2022-09-29T03:22:35;0.90;;;0.90;;
19341;SDS011;9807;48.258;12.690;2022-09-29T03:25:01;1.30;;;1.03;;
19341;SDS011;9807;48.258;12.690;2022-09-29T03:27:31;0.80;;;0.80;;
19341;SDS011;9807;48.258;12.690;2022-09-29T03:29:57;0.80;;;0.80;;
19341;SDS011;9807;48.258;12.690;2022-09-29T03:32:23;0.80;;;0.80;;
19341;SDS011;9807;48.258;12.690;2022-09-29T03:34:51;1.20;;;1.10;;
19341;SDS011;9807;48.258;12.690;2022-09-29T03:37:17;0.93;;;0.93;;
19341;SDS011;9807;48.258;12.690;2022-09-29T03:39:46;0.70;;;0.70;;
19341;SDS011;9807;48.258;12.690;2022-09-29T03:42:11;1.03;;;0.77;;
19341;SDS011;9807;48.258;12.690;2022-09-29T03:44:37;1.23;;;0.90;;
19341;SDS011;9807;48.258;12.690;2022-09-29T03:47:03;0.67;;;0.67;;
19341;SDS011;9807;48.258;12.690;2022-09-29T03:49:29;1.10;;;1.00;;
19341;SDS011;9807;48.258;12.690;2022-09-29T03:51:55;1.20;;;1.10;;
19341;SDS011;9807;48.258;12.690;2022-09-29T03:54:21;1.20;;;0.87;;
19341;SDS011;9807;48.258;12.690;2022-09-29T03:56:51;0.90;;;0.83;;
19341;SDS011;9807;48.258;12.690;2022-09-29T03:59:17;0.90;;;0.90;;
19341;SDS011;9807;48.258;12.690;2022-09-29T04:01:43;1.00;;;0.80;;
19341;SDS011;9807;48.258;12.690;2022-09-29T04:04:09;1.87;;;1.57;;
19341;SDS011;9807;48.258;12.690;2022-09-29T04:06:35;0.90;;;0.90;;
19341;SDS011;9807;48.258;12.690;2022-09-29T04:09:01;1.13;;;0.90;;
19341;SDS011;9807;48.258;12.690;2022-09-29T04:11:27;0.70;;;0.70;;
19341;SDS011;9807;48.258;12.690;2022-09-29T04:13:55;3.90;;;1.00;;
19341;SDS011;9807;48.258;12.690;2022-09-29T04:16:21;0.90;;;0.90;;
19341;SDS011;9807;48.258;12.690;2022-09-29T04:18:47;5.43;;;0.90;;
19341;SDS011;9807;48.258;12.690;2022-09-29T04:21:12;3.27;;;0.90;;
19341;SDS011;9807;48.258;12.690;2022-09-29T04:23:38;3.80;;;0.90;;
19341;SDS011;9807;48.258;12.690;2022-09-29T04:26:04;1.00;;;0.90;;
19341;SDS011;9807;48.258;12.690;2022-09-29T04:28:30;8.43;;;0.97;;
19341;SDS011;9807;48.258;12.690;2022-09-29T04:30:57;2.10;;;0.70;;
19341;SDS011;9807;48.258;12.690;2022-09-29T04:33:22;0.70;;;0.70;;
19341;SDS011;9807;48.258;12.690;2022-09-29T04:35:48;2.30;;;0.87;;
19341;SDS011;9807;48.258;12.690;2022-09-29T04:38:17;0.90;;;0.80;;
19341;SDS011;9807;48.258;12.690;2022-09-29T04:40:43;0.90;;;0.90;;
19341;SDS011;9807;48.258;12.690;2022-09-29T04:43:09;1.00;;;1.00;;
19341;SDS011;9807;48.258;12.690;2022-09-29T04:45:34;0.80;;;0.80;;
19341;SDS011;9807;48.258;12.690;2022-09-29T04:48:00;0.93;;;0.83;;
19341;SDS011;9807;48.258;12.690;2022-09-29T04:50:26;0.80;;;0.80;;
19341;SDS011;9807;48.258;12.690;2022-09-29T04:52:52;1.13;;;1.00;;
19341;SDS011;9807;48.258;12.690;2022-09-29T04:55:17;0.97;;;0.90;;
19341;SDS011;9807;48.258;12.690;2022-09-29T04:57:43;1.00;;;0.80;;
19341;SDS011;9807;48.258;12.690;2022-09-29T05:00:10;0.70;;;0.70;;
19341;SDS011;9807;48.258;12.690;2022-09-29T05:02:37;0.77;;;0.77;;
19341;SDS011;9807;48.258;12.690;2022-09-29T05:05:03;0.67;;;0.67;;
19341;SDS011;9807;48.258;12.690;2022-09-29T05:07:30;0.90;;;0.90;;
19341;SDS011;9807;48.258;12.690;2022-09-29T05:09:58;0.63;;;0.63;;
19341;SDS011;9807;48.258;12.690;2022-09-29T05:12:23;0.90;;;0.90;;
19341;SDS011;9807;48.258;12.690;2022-09-29T05:14:52;2.30;;;1.77;;
19341;SDS011;9807;48.258;12.690;2022-09-29T05:17:18;0.90;;;0.90;;
19341;SDS011;9807;48.258;12.690;2022-09-29T05:19:43;1.00;;;1.00;;
19341;SDS011;9807;48.258;12.690;2022-09-29T05:22:09;3.33;;;1.07;;
19341;SDS011;9807;48.258;12.690;2022-09-29T05:24:35;0.83;;;0.80;;
19341;SDS011;9807;48.258;12.690;2022-09-29T05:27:01;1.30;;;1.20;;
19341;SDS011;9807;48.258;12.690;2022-09-29T05:29:26;0.80;;;0.80;;
19341;SDS011;9807;48.258;12.690;2022-09-29T05:31:55;1.20;;;1.10;;
19341;SDS011;9807;48.258;12.690;2022-09-29T05:34:21;0.80;;;0.80;;
19341;SDS011;9807;48.258;12.690;2022-09-29T05:36:48;0.80;;;0.80;;
19341;SDS011;9807;48.258;12.690;2022-09-29T05:39:17;1.20;;;1.10;;
19341;SDS011;9807;48.258;12.690;2022-09-29T05:41:44;1.80;;;0.70;;
19341;SDS011;9807;48.258;12.690;2022-09-29T05:44:10;0.80;;;0.77;;
19341;SDS011;9807;48.258;12.690;2022-09-29T05:46:36;0.80;;;0.80;;
19341;SDS011;9807;48.258;12.690;2022-09-29T05:49:01;1.10;;;1.00;;
19341;SDS011;9807;48.258;12.690;2022-09-29T05:51:27;2.77;;;1.17;;
19341;SDS011;9807;48.258;12.690;2022-09-29T05:53:53;0.70;;;0.70;;
19341;SDS011;9807;48.258;12.690;2022-09-29T05:56:20;0.80;;;0.80;;
19341;SDS011;9807;48.258;12.690;2022-09-29T05:58:47;1.10;;;0.87;;
19341;SDS011;9807;48.258;12.690;2022-09-29T06:01:24;0.90;;;0.90;;
19341;SDS011;9807;48.258;12.690;2022-09-29T06:03:54;1.20;;;1.00;;
19341;SDS011;9807;48.258;12.690;2022-09-29T06:06:22;0.90;;;0.90;;
19341;SDS011;9807;48.258;12.690;2022-09-29T06:08:52;0.77;;;0.73;;
19341;SDS011;9807;48.258;12.690;2022-09-29T06:11:20;1.77;;;1.40;;
19341;SDS011;9807;48.258;12.690;2022-09-29T06:13:51;2.37;;;1.80;;
19341;SDS011;9807;48.258;12.690;2022-09-29T06:16:22;2.80;;;1.90;;
19341;SDS011;9807;48.258;12.690;2022-09-29T06:18:50;2.53;;;1.20;;
19341;SDS011;9807;48.258;12.690;2022-09-29T06:21:17;0.90;;;0.90;;
19341;SDS011;9807;48.258;12.690;2022-09-29T06:23:53;2.13;;;0.90;;
19341;SDS011;9807;48.258;12.690;2022-09-29T06:26:20;3.70;;;1.70;;
19341;SDS011;9807;48.258;12.690;2022-09-29T06:28:47;1.97;;;0.97;;
19341;SDS011;9807;48.258;12.690;2022-09-29T06:31:13;0.90;;;0.90;;
19341;SDS011;9807;48.258;12.690;2022-09-29T06:33:41;1.20;;;1.10;;
19341;SDS011;9807;48.258;12.690;2022-09-29T06:36:18;1.30;;;1.20;;
19341;SDS011;9807;48.258;12.690;2022-09-29T06:39:05;1.50;;;1.40;;
19341;SDS011;9807;48.258;12.690;2022-09-29T06:41:32;1.27;;;1.17;;
19341;SDS011;9807;48.258;12.690;2022-09-29T06:43:59;2.20;;;1.30;;
19341;SDS011;9807;48.258;12.690;2022-09-29T06:46:25;1.53;;;1.43;;
19341;SDS011;9807;48.258;12.690;2022-09-29T06:48:51;1.50;;;1.40;;
19341;SDS011;9807;48.258;12.690;2022-09-29T06:51:18;1.67;;;1.57;;
19341;SDS011;9807;48.258;12.690;2022-09-29T06:53:46;1.13;;;1.03;;
19341;SDS011;9807;48.258;12.690;2022-09-29T06:56:12;1.50;;;1.40;;
19341;SDS011;9807;48.258;12.690;2022-09-29T06:58:38;1.50;;;1.40;;
19341;SDS011;9807;48.258;12.690;2022-09-29T07:01:04;1.53;;;1.43;;
19341;SDS011;9807;48.258;12.690;2022-09-29T07:03:30;1.23;;;1.13;;
19341;SDS011;9807;48.258;12.690;2022-09-29T07:06:00;3.57;;;2.00;;
19341;SDS011;9807;48.258;12.690;2022-09-29T07:08:30;2.57;;;1.40;;
19341;SDS011;9807;48.258;12.690;2022-09-29T07:10:56;3.27;;;1.80;;
19341;SDS011;9807;48.258;12.690;2022-09-29T07:13:22;2.40;;;1.90;;
19341;SDS011;9807;48.258;12.690;2022-09-29T07:15:51;1.90;;;1.70;;
19341;SDS011;9807;48.258;12.690;2022-09-29T07:18:18;2.53;;;1.73;;
19341;SDS011;9807;48.258;12.690;2022-09-29T07:20:44;1.60;;;1.50;;
19341;SDS011;9807;48.258;12.690;2022-09-29T07:23:10;2.40;;;1.50;;
19341;SDS011;9807;48.258;12.690;2022-09-29T07:25:36;2.70;;;2.27;;
19341;SDS011;9807;48.258;12.690;2022-09-29T07:28:02;3.20;;;2.43;;
19341;SDS011;9807;48.258;12.690;2022-09-29T07:30:27;2.37;;;1.87;;
19341;SDS011;9807;48.258;12.690;2022-09-29T07:32:53;2.20;;;2.00;;
19341;SDS011;9807;48.258;12.690;2022-09-29T07:35:25;2.90;;;2.30;;
19341;SDS011;9807;48.258;12.690;2022-09-29T07:37:54;2.57;;;2.37;;
19341;SDS011;9807;48.258;12.690;2022-09-29T07:40:20;3.60;;;2.00;;
19341;SDS011;9807;48.258;12.690;2022-09-29T07:42:47;2.90;;;2.20;;
19341;SDS011;9807;48.258;12.690;2022-09-29T07:45:16;3.57;;;2.40;;
19341;SDS011;9807;48.258;12.690;2022-09-29T07:47:42;3.50;;;2.30;;
19341;SDS011;9807;48.258;12.690;2022-09-29T07:50:08;9.17;;;2.50;;
19341;SDS011;9807;48.258;12.690;2022-09-29T07:52:34;2.13;;;1.77;;
19341;SDS011;9807;48.258;12.690;2022-09-29T07:55:03;2.93;;;2.10;;
19341;SDS011;9807;48.258;12.690;2022-09-29T07:57:32;1.83;;;1.73;;
19341;SDS011;9807;48.258;12.690;2022-09-29T07:59:58;2.13;;;1.70;;
19341;SDS011;9807;48.258;12.690;2022-09-29T08:02:24;2.40;;;2.20;;
19341;SDS011;9807;48.258;12.690;2022-09-29T08:04:53;4.27;;;2.43;;
19341;SDS011;9807;48.258;12.690;2022-09-29T08:07:18;2.37;;;1.70;;
19341;SDS011;9807;48.258;12.690;2022-09-29T08:09:44;1.73;;;1.63;;
19341;SDS011;9807;48.258;12.690;2022-09-29T08:12:11;1.50;;;1.40;;
19341;SDS011;9807;48.258;12.690;2022-09-29T08:14:36;2.80;;;1.50;;
19341;SDS011;9807;48.258;12.690;2022-09-29T08:17:03;2.43;;;1.70;;
19341;SDS011;9807;48.258;12.690;2022-09-29T08:19:32;2.10;;;1.90;;
19341;SDS011;9807;48.258;12.690;2022-09-29T08:21:58;2.10;;;1.90;;
19341;SDS011;9807;48.258;12.690;2022-09-29T08:24:24;2.77;;;1.77;;
19341;SDS011;9807;48.258;12.690;2022-09-29T08:26:52;1.33;;;1.23;;
19341;SDS011;9807;48.258;12.690;2022-09-29T08:29:18;2.10;;;1.50;;
19341;SDS011;9807;48.258;12.690;2022-09-29T08:31:44;1.60;;;1.50;;
19341;SDS011;9807;48.258;12.690;2022-09-29T08:34:10;1.63;;;1.40;;
19341;SDS011;9807;48.258;12.690;2022-09-29T08:36:37;1.30;;;1.20;;
19341;SDS011;9807;48.258;12.690;2022-09-29T08:39:02;1.83;;;1.70;;
19341;SDS011;9807;48.258;12.690;2022-09-29T08:44:43;1.43;;;1.30;;
19341;SDS011;9807;48.258;12.690;2022-09-29T08:47:24;3.07;;;1.33;;
19341;SDS011;9807;48.258;12.690;2022-09-29T08:49:54;3.43;;;1.40;;
19341;SDS011;9807;48.258;12.690;2022-09-29T08:52:27;2.77;;;1.43;;
19341;SDS011;9807;48.258;12.690;2022-09-29T08:57:42;2.17;;;1.40;;
19341;SDS011;9807;48.258;12.690;2022-09-29T09:00:11;1.07;;;1.03;;
19341;SDS011;9807;48.258;12.690;2022-09-29T09:10:45;1.10;;;1.10;;
19341;SDS011;9807;48.258;12.690;2022-09-29T09:13:28;1.30;;;1.20;;
19341;SDS011;9807;48.258;12.690;2022-09-29T09:16:15;1.00;;;1.00;;
19341;SDS011;9807;48.258;12.690;2022-09-29T09:21:59;1.33;;;1.00;;
19341;SDS011;9807;48.258;12.690;2022-09-29T09:27:26;1.33;;;1.23;;
19341;SDS011;9807;48.258;12.690;2022-09-29T09:30:02;1.63;;;1.00;;
19341;SDS011;9807;48.258;12.690;2022-09-29T09:32:32;3.10;;;1.30;;
19341;SDS011;9807;48.258;12.690;2022-09-29T09:35:10;1.60;;;1.50;;
19341;SDS011;9807;48.258;12.690;2022-09-29T09:37:45;1.30;;;1.20;;
19341;SDS011;9807;48.258;12.690;2022-09-29T09:40:16;1.10;;;1.10;;
19341;SDS011;9807;48.258;12.690;2022-09-29T09:42:59;1.30;;;1.10;;
19341;SDS011;9807;48.258;12.690;2022-09-29T09:45:40;1.47;;;1.30;;
19341;SDS011;9807;48.258;12.690;2022-09-29T09:48:35;0.90;;;0.90;;
19341;SDS011;9807;48.258;12.690;2022-09-29T09:53:53;2.03;;;1.20;;
19341;SDS011;9807;48.258;12.690;2022-09-29T10:01:36;3.43;;;1.30;;
19341;SDS011;9807;48.258;12.690;2022-09-29T10:04:03;1.70;;;1.10;;
19341;SDS011;9807;48.258;12.690;2022-09-29T10:06:32;1.33;;;1.00;;
19341;SDS011;9807;48.258;12.690;2022-09-29T10:08:58;0.90;;;0.90;;
19341;SDS011;9807;48.258;12.690;2022-09-29T10:11:25;0.80;;;0.80;;
19341;SDS011;9807;48.258;12.690;2022-09-29T10:16:42;0.80;;;0.70;;
19341;SDS011;9807;48.258;12.690;2022-09-29T10:19:23;2.37;;;0.80;;
19341;SDS011;9807;48.258;12.690;2022-09-29T10:22:12;0.77;;;0.77;;
19341;SDS011;9807;48.258;12.690;2022-09-29T10:24:39;1.07;;;0.80;;
19341;SDS011;9807;48.258;12.690;2022-09-29T10:27:04;1.07;;;0.90;;
19341;SDS011;9807;48.258;12.690;2022-09-29T10:29:32;1.77;;;0.80;;
19341;SDS011;9807;48.258;12.690;2022-09-29T10:32:04;1.27;;;0.77;;
19341;SDS011;9807;48.258;12.690;2022-09-29T10:34:35;0.87;;;0.57;;
19341;SDS011;9807;48.258;12.690;2022-09-29T10:37:05;1.37;;;0.80;;
19341;SDS011;9807;48.258;12.690;2022-09-29T10:39:44;0.97;;;0.70;;
19341;SDS011;9807;48.258;12.690;2022-09-29T10:42:37;0.77;;;0.70;;
19341;SDS011;9807;48.258;12.690;2022-09-29T10:45:14;0.67;;;0.60;;
19341;SDS011;9807;48.258;12.690;2022-09-29T10:50:24;1.80;;;0.63;;
19341;SDS011;9807;48.258;12.690;2022-09-29T10:52:58;1.00;;;0.60;;
19341;SDS011;9807;48.258;12.690;2022-09-29T10:55:26;1.20;;;0.70;;
19341;SDS011;9807;48.258;12.690;2022-09-29T10:57:58;1.70;;;0.70;;
19341;SDS011;9807;48.258;12.690;2022-09-29T11:00:44;2.83;;;0.90;;
19341;SDS011;9807;48.258;12.690;2022-09-29T11:03:18;0.73;;;0.60;;
19341;SDS011;9807;48.258;12.690;2022-09-29T11:05:51;1.00;;;0.90;;
19341;SDS011;9807;48.258;12.690;2022-09-29T11:08:23;1.10;;;1.00;;
19341;SDS011;9807;48.258;12.690;2022-09-29T11:13:43;3.20;;;1.07;;
19341;SDS011;9807;48.258;12.690;2022-09-29T11:16:17;2.67;;;0.90;;
19341;SDS011;9807;48.258;12.690;2022-09-29T11:18:53;0.90;;;0.90;;
19341;SDS011;9807;48.258;12.690;2022-09-29T11:24:31;1.10;;;1.00;;
19341;SDS011;9807;48.258;12.690;2022-09-29T11:27:06;1.53;;;0.73;;
19341;SDS011;9807;48.258;12.690;2022-09-29T11:30:22;0.70;;;0.70;;
19341;SDS011;9807;48.258;12.690;2022-09-29T11:44:04;2.57;;;0.80;;
19341;SDS011;9807;48.258;12.690;2022-09-29T11:49:50;1.10;;;1.00;;
19341;SDS011;9807;48.258;12.690;2022-09-29T11:57:49;1.03;;;0.93;;
19341;SDS011;9807;48.258;12.690;2022-09-29T12:17:15;1.13;;;0.93;;
19341;SDS011;9807;48.258;12.690;2022-09-29T12:19:43;1.97;;;0.80;;
19341;SDS011;9807;48.258;12.690;2022-09-29T12:22:13;2.87;;;1.37;;
19341;SDS011;9807;48.258;12.690;2022-09-29T12:24:52;1.50;;;1.20;;
19341;SDS011;9807;48.258;12.690;2022-09-29T12:27:55;3.77;;;1.40;;
19341;SDS011;9807;48.258;12.690;2022-09-29T12:30:19;2.67;;;1.40;;
19341;SDS011;9807;48.258;12.690;2022-09-29T12:50:49;2.20;;;1.40;;
19341;SDS011;9807;48.258;12.690;2022-09-29T12:56:29;5.10;;;1.50;;
19341;SDS011;9807;48.258;12.690;2022-09-29T13:02:08;1.53;;;1.20;;
19341;SDS011;9807;48.258;12.690;2022-09-29T13:08:19;1.70;;;1.00;;
19341;SDS011;9807;48.258;12.690;2022-09-29T13:14:20;1.70;;;1.10;;
19341;SDS011;9807;48.258;12.690;2022-09-29T13:17:11;3.63;;;1.30;;
19341;SDS011;9807;48.258;12.690;2022-09-29T13:27:40;4.77;;;1.40;;
19341;SDS011;9807;48.258;12.690;2022-09-29T13:32:41;3.33;;;1.80;;
19341;SDS011;9807;48.258;12.690;2022-09-29T13:35:22;3.83;;;1.87;;
19341;SDS011;9807;48.258;12.690;2022-09-29T13:37:53;8.80;;;2.10;;
19341;SDS011;9807;48.258;12.690;2022-09-29T13:40:26;2.47;;;2.10;;
19341;SDS011;9807;48.258;12.690;2022-09-29T13:42:56;6.73;;;2.30;;
19341;SDS011;9807;48.258;12.690;2022-09-29T13:47:53;4.73;;;2.53;;
19341;SDS011;9807;48.258;12.690;2022-09-29T13:50:39;4.10;;;2.13;;
19341;SDS011;9807;48.258;12.690;2022-09-29T14:01:02;9.63;;;2.70;;
19341;SDS011;9807;48.258;12.690;2022-09-29T14:03:37;3.70;;;2.60;;
19341;SDS011;9807;48.258;12.690;2022-09-29T14:08:37;3.87;;;2.80;;
19341;SDS011;9807;48.258;12.690;2022-09-29T14:32:42;3.87;;;2.97;;
19341;SDS011;9807;48.258;12.690;2022-09-29T14:35:22;5.57;;;3.07;;
19341;SDS011;9807;48.258;12.690;2022-09-29T14:38:01;7.73;;;3.50;;
19341;SDS011;9807;48.258;12.690;2022-09-29T14:40:33;5.87;;;3.50;;
19341;SDS011;9807;48.258;12.690;2022-09-29T14:45:47;6.00;;;3.50;;
19341;SDS011;9807;48.258;12.690;2022-09-29T14:48:54;6.13;;;3.57;;
19341;SDS011;9807;48.258;12.690;2022-09-29T14:51:43;4.20;;;3.00;;
19341;SDS011;9807;48.258;12.690;2022-09-29T14:54:29;5.33;;;3.50;;
19341;SDS011;9807;48.258;12.690;2022-09-29T14:57:17;5.17;;;3.87;;
19341;SDS011;9807;48.258;12.690;2022-09-29T15:00:00;5.23;;;3.70;;
19341;SDS011;9807;48.258;12.690;2022-09-29T15:02:42;5.40;;;3.70;;
19341;SDS011;9807;48.258;12.690;2022-09-29T15:05:23;8.73;;;4.50;;
19341;SDS011;9807;48.258;12.690;2022-09-29T15:07:58;5.90;;;4.13;;
19341;SDS011;9807;48.258;12.690;2022-09-29T15:10:27;7.50;;;4.20;;
19341;SDS011;9807;48.258;12.690;2022-09-29T15:13:13;8.97;;;4.20;;
19341;SDS011;9807;48.258;12.690;2022-09-29T15:15:45;6.03;;;4.00;;
19341;SDS011;9807;48.258;12.690;2022-09-29T15:21:35;5.60;;;3.50;;
19341;SDS011;9807;48.258;12.690;2022-09-29T15:25:25;5.17;;;3.60;;
19341;SDS011;9807;48.258;12.690;2022-09-29T15:27:19;6.60;;;4.33;;
19341;SDS011;9807;48.258;12.690;2022-09-29T15:29:45;8.40;;;4.60;;
19341;SDS011;9807;48.258;12.690;2022-09-29T15:32:22;6.03;;;4.20;;
19341;SDS011;9807;48.258;12.690;2022-09-29T15:34:51;8.77;;;4.60;;
19341;SDS011;9807;48.258;12.690;2022-09-29T15:37:23;6.33;;;3.90;;
19341;SDS011;9807;48.258;12.690;2022-09-29T15:39:52;9.20;;;4.33;;
19341;SDS011;9807;48.258;12.690;2022-09-29T15:42:21;5.93;;;4.10;;
19341;SDS011;9807;48.258;12.690;2022-09-29T15:44:52;5.60;;;3.80;;
19341;SDS011;9807;48.258;12.690;2022-09-29T15:47:39;5.90;;;4.07;;
19341;SDS011;9807;48.258;12.690;2022-09-29T15:50:21;9.43;;;4.07;;
19341;SDS011;9807;48.258;12.690;2022-09-29T15:52:51;5.13;;;4.10;;
19341;SDS011;9807;48.258;12.690;2022-09-29T15:55:21;5.87;;;4.27;;
19341;SDS011;9807;48.258;12.690;2022-09-29T15:57:53;6.50;;;4.23;;
19341;SDS011;9807;48.258;12.690;2022-09-29T16:03:04;4.37;;;3.97;;
19341;SDS011;9807;48.258;12.690;2022-09-29T16:05:53;7.40;;;4.97;;
19341;SDS011;9807;48.258;12.690;2022-09-29T16:08:28;6.70;;;5.70;;
19341;SDS011;9807;48.258;12.690;2022-09-29T16:11:00;9.10;;;5.43;;
19341;SDS011;9807;48.258;12.690;2022-09-29T16:13:30;8.07;;;5.50;;
19341;SDS011;9807;48.258;12.690;2022-09-29T16:16:04;11.33;;;6.50;;
19341;SDS011;9807;48.258;12.690;2022-09-29T16:18:43;8.60;;;6.47;;
19341;SDS011;9807;48.258;12.690;2022-09-29T16:21:13;14.93;;;8.57;;
19341;SDS011;9807;48.258;12.690;2022-09-29T16:23:44;10.13;;;6.77;;
19341;SDS011;9807;48.258;12.690;2022-09-29T16:26:14;13.40;;;6.83;;
19341;SDS011;9807;48.258;12.690;2022-09-29T16:31:42;10.20;;;6.77;;
19341;SDS011;9807;48.258;12.690;2022-09-29T16:39:30;10.13;;;6.90;;
19341;SDS011;9807;48.258;12.690;2022-09-29T16:42:03;8.47;;;6.50;;
19341;SDS011;9807;48.258;12.690;2022-09-29T16:44:33;17.53;;;7.80;;
19341;SDS011;9807;48.258;12.690;2022-09-29T16:50:02;12.20;;;6.50;;
19341;SDS011;9807;48.258;12.690;2022-09-29T16:52:42;9.57;;;6.83;;
19341;SDS011;9807;48.258;12.690;2022-09-29T17:00:19;10.60;;;6.90;;
19341;SDS011;9807;48.258;12.690;2022-09-29T17:02:49;10.47;;;7.20;;
19341;SDS011;9807;48.258;12.690;2022-09-29T17:05:23;6.87;;;6.17;;
19341;SDS011;9807;48.258;12.690;2022-09-29T17:07:50;13.57;;;7.97;;
19341;SDS011;9807;48.258;12.690;2022-09-29T17:10:24;13.00;;;6.70;;
19341;SDS011;9807;48.258;12.690;2022-09-29T17:12:50;12.77;;;7.57;;
19341;SDS011;9807;48.258;12.690;2022-09-29T17:15:16;8.07;;;6.80;;
19341;SDS011;9807;48.258;12.690;2022-09-29T17:17:46;8.73;;;7.00;;
19341;SDS011;9807;48.258;12.690;2022-09-29T17:20:13;8.77;;;6.67;;
19341;SDS011;9807;48.258;12.690;2022-09-29T17:22:41;10.70;;;6.80;;
19341;SDS011;9807;48.258;12.690;2022-09-29T17:25:09;9.20;;;6.97;;
19341;SDS011;9807;48.258;12.690;2022-09-29T17:27:39;12.40;;;7.93;;
19341;SDS011;9807;48.258;12.690;2022-09-29T17:30:25;10.97;;;7.70;;
19341;SDS011;9807;48.258;12.690;2022-09-29T17:32:53;10.27;;;8.03;;
19341;SDS011;9807;48.258;12.690;2022-09-29T17:35:22;12.33;;;7.77;;
19341;SDS011;9807;48.258;12.690;2022-09-29T17:37:59;10.83;;;8.30;;
19341;SDS011;9807;48.258;12.690;2022-09-29T17:43:29;9.30;;;6.27;;
19341;SDS011;9807;48.258;12.690;2022-09-29T17:45:59;9.13;;;6.10;;
19341;SDS011;9807;48.258;12.690;2022-09-29T17:48:25;10.53;;;6.63;;
19341;SDS011;9807;48.258;12.690;2022-09-29T17:50:52;9.63;;;6.20;;
19341;SDS011;9807;48.258;12.690;2022-09-29T17:53:20;12.47;;;6.83;;
19341;SDS011;9807;48.258;12.690;2022-09-29T17:55:52;10.83;;;6.83;;
19341;SDS011;9807;48.258;12.690;2022-09-29T17:58:20;8.07;;;6.63;;
19341;SDS011;9807;48.258;12.690;2022-09-29T18:00:48;13.13;;;6.60;;
19341;SDS011;9807;48.258;12.690;2022-09-29T18:05:59;12.33;;;6.50;;
19341;SDS011;9807;48.258;12.690;2022-09-29T18:08:25;13.03;;;7.13;;
19341;SDS011;9807;48.258;12.690;2022-09-29T18:10:54;12.13;;;6.70;;
19341;SDS011;9807;48.258;12.690;2022-09-29T18:13:22;8.83;;;7.10;;
19341;SDS011;9807;48.258;12.690;2022-09-29T18:15:49;12.60;;;8.87;;
19341;SDS011;9807;48.258;12.690;2022-09-29T18:18:20;10.07;;;7.70;;
19341;SDS011;9807;48.258;12.690;2022-09-29T18:20:46;19.87;;;10.17;;
19341;SDS011;9807;48.258;12.690;2022-09-29T18:23:14;19.20;;;9.33;;
19341;SDS011;9807;48.258;12.690;2022-09-29T18:25:41;20.50;;;9.53;;
19341;SDS011;9807;48.258;12.690;2022-09-29T18:28:10;23.70;;;10.43;;
19341;SDS011;9807;48.258;12.690;2022-09-29T18:30:39;22.27;;;10.23;;
19341;SDS011;9807;48.258;12.690;2022-09-29T18:33:08;14.17;;;8.70;;
19341;SDS011;9807;48.258;12.690;2022-09-29T18:35:39;12.87;;;8.10;;
19341;SDS011;9807;48.258;12.690;2022-09-29T18:38:07;15.47;;;8.10;;
19341;SDS011;9807;48.258;12.690;2022-09-29T18:40:33;14.70;;;7.93;;
19341;SDS011;9807;48.258;12.690;2022-09-29T18:42:59;7.83;;;5.77;;
19341;SDS011;9807;48.258;12.690;2022-09-29T18:45:29;10.83;;;7.70;;